sensor_id;sensor_type;location;lat;lon;timestamp;temperature;humidity
7325;DHT22;3703;48.016;7.802;2023-04-04T00:07:35;4.90;1.00
7325;DHT22;3703;48.016;7.802;2023-04-04T00:18:46;5.30;1.00
7325;DHT22;3703;48.016;7.802;2023-04-04T00:24:23;4.50;99.90
7325;DHT22;3703;48.016;7.802;2023-04-04T00:41:11;4.60;99.90
7325;DHT22;3703;48.016;7.802;2023-04-04T00:57:59;4.40;99.90
7325;DHT22;3703;48.016;7.802;2023-04-04T01:14:50;4.30;32.10
7325;DHT22;3703;48.016;7.802;2023-04-04T01:20:29;4.10;1.00
7325;DHT22;3703;48.016;7.802;2023-04-04T01:23:19;4.20;1.00
7325;DHT22;3703;48.016;7.802;2023-04-04T01:26:09;4.20;1.00
7325;DHT22;3703;48.016;7.802;2023-04-04T01:28:57;4.20;1.00
7325;DHT22;3703;48.016;7.802;2023-04-04T01:31:48;4.20;99.90
7325;DHT22;3703;48.016;7.802;2023-04-04T01:34:43;4.20;99.90
7325;DHT22;3703;48.016;7.802;2023-04-04T01:37:39;4.00;1.00
7325;DHT22;3703;48.016;7.802;2023-04-04T01:40:32;3.80;1.00
7325;DHT22;3703;48.016;7.802;2023-04-04T01:43:23;3.60;1.00
7325;DHT22;3703;48.016;7.802;2023-04-04T02:00:13;3.60;1.00
7325;DHT22;3703;48.016;7.802;2023-04-04T02:17:02;3.70;1.00
7325;DHT22;3703;48.016;7.802;2023-04-04T02:31:01;4.30;1.00
7325;DHT22;3703;48.016;7.802;2023-04-04T02:33:50;3.80;1.00
7325;DHT22;3703;48.016;7.802;2023-04-04T02:50:39;3.60;1.00
7325;DHT22;3703;48.016;7.802;2023-04-04T03:07:27;3.10;99.90
7325;DHT22;3703;48.016;7.802;2023-04-04T03:24:21;3.30;99.90
7325;DHT22;3703;48.016;7.802;2023-04-04T03:35:36;3.50;26.10
7325;DHT22;3703;48.016;7.802;2023-04-04T03:41:13;3.40;1.00
7325;DHT22;3703;48.016;7.802;2023-04-04T03:44:03;3.60;1.00
7325;DHT22;3703;48.016;7.802;2023-04-04T03:58:03;3.80;1.00
7325;DHT22;3703;48.016;7.802;2023-04-04T04:14:51;3.30;99.90
7325;DHT22;3703;48.016;7.802;2023-04-04T04:28:51;3.10;99.90
7325;DHT22;3703;48.016;7.802;2023-04-04T04:31:40;3.20;99.90
7325;DHT22;3703;48.016;7.802;2023-04-04T04:40:04;2.80;99.90
7325;DHT22;3703;48.016;7.802;2023-04-04T04:48:30;2.50;1.00
7325;DHT22;3703;48.016;7.802;2023-04-04T05:02:29;2.50;1.00
7325;DHT22;3703;48.016;7.802;2023-04-04T05:05:18;2.60;1.00
7325;DHT22;3703;48.016;7.802;2023-04-04T05:22:07;2.80;1.00
7325;DHT22;3703;48.016;7.802;2023-04-04T05:27:45;2.80;99.90
7325;DHT22;3703;48.016;7.802;2023-04-04T05:38:59;2.70;1.00
7325;DHT22;3703;48.016;7.802;2023-04-04T05:55:50;3.10;1.00
7325;DHT22;3703;48.016;7.802;2023-04-04T06:12:40;3.30;1.00
7325;DHT22;3703;48.016;7.802;2023-04-04T06:29:29;3.50;99.90
7325;DHT22;3703;48.016;7.802;2023-04-04T06:35:05;3.60;58.80
7325;DHT22;3703;48.016;7.802;2023-04-04T06:46:18;4.00;1.00
7325;DHT22;3703;48.016;7.802;2023-04-04T07:03:08;4.00;99.90
7325;DHT22;3703;48.016;7.802;2023-04-04T07:19:59;4.10;1.00
7325;DHT22;3703;48.016;7.802;2023-04-04T07:22:47;4.30;99.90
7325;DHT22;3703;48.016;7.802;2023-04-04T07:31:12;4.50;1.00
7325;DHT22;3703;48.016;7.802;2023-04-04T07:36:49;4.90;1.00
7325;DHT22;3703;48.016;7.802;2023-04-04T07:53:41;5.10;1.00
7325;DHT22;3703;48.016;7.802;2023-04-04T08:10:29;5.50;99.90
7325;DHT22;3703;48.016;7.802;2023-04-04T08:27:18;6.30;1.00
7325;DHT22;3703;48.016;7.802;2023-04-04T08:30:07;6.50;1.00
7325;DHT22;3703;48.016;7.802;2023-04-04T08:44:10;7.20;91.60
7325;DHT22;3703;48.016;7.802;2023-04-04T08:47:04;7.10;99.90
7325;DHT22;3703;48.016;7.802;2023-04-04T08:49:52;7.30;99.90
7325;DHT22;3703;48.016;7.802;2023-04-04T08:52:42;7.50;99.90
7325;DHT22;3703;48.016;7.802;2023-04-04T09:01:08;8.00;99.90
7325;DHT22;3703;48.016;7.802;2023-04-04T09:03:57;8.30;99.90
7325;DHT22;3703;48.016;7.802;2023-04-04T09:06:45;8.40;99.90
7325;DHT22;3703;48.016;7.802;2023-04-04T09:12:23;8.80;99.90
7325;DHT22;3703;48.016;7.802;2023-04-04T09:15:12;8.80;99.90
7325;DHT22;3703;48.016;7.802;2023-04-04T09:18:02;8.60;99.90
7325;DHT22;3703;48.016;7.802;2023-04-04T09:23:38;8.90;99.90
7325;DHT22;3703;48.016;7.802;2023-04-04T09:34:55;9.40;97.20
7325;DHT22;3703;48.016;7.802;2023-04-04T09:37:43;9.40;98.70
7325;DHT22;3703;48.016;7.802;2023-04-04T09:46:08;9.90;98.40
7325;DHT22;3703;48.016;7.802;2023-04-04T09:48:59;10.40;98.30
7325;DHT22;3703;48.016;7.802;2023-04-04T09:51:53;10.50;97.70
7325;DHT22;3703;48.016;7.802;2023-04-04T09:54:41;10.30;95.40
7325;DHT22;3703;48.016;7.802;2023-04-04T09:57:29;10.60;95.50
7325;DHT22;3703;48.016;7.802;2023-04-04T10:00:19;11.10;99.90
7325;DHT22;3703;48.016;7.802;2023-04-04T10:03:10;10.90;94.40
7325;DHT22;3703;48.016;7.802;2023-04-04T10:06:00;10.80;95.20
7325;DHT22;3703;48.016;7.802;2023-04-04T10:08:51;11.00;96.20
7325;DHT22;3703;48.016;7.802;2023-04-04T10:14:33;11.60;99.90
7325;DHT22;3703;48.016;7.802;2023-04-04T10:17:21;11.50;97.60
7325;DHT22;3703;48.016;7.802;2023-04-04T10:20:10;11.80;97.80
7325;DHT22;3703;48.016;7.802;2023-04-04T10:22:59;11.70;96.80
7325;DHT22;3703;48.016;7.802;2023-04-04T10:25:48;12.30;96.70
7325;DHT22;3703;48.016;7.802;2023-04-04T10:28:35;11.80;96.50
7325;DHT22;3703;48.016;7.802;2023-04-04T10:31:24;12.20;96.30
7325;DHT22;3703;48.016;7.802;2023-04-04T10:34:19;13.20;96.40
7325;DHT22;3703;48.016;7.802;2023-04-04T10:37:12;12.90;92.00
7325;DHT22;3703;48.016;7.802;2023-04-04T10:40:06;11.60;91.50
7325;DHT22;3703;48.016;7.802;2023-04-04T10:43:01;13.80;92.00
7325;DHT22;3703;48.016;7.802;2023-04-04T10:45:50;14.50;90.60
7325;DHT22;3703;48.016;7.802;2023-04-04T10:48:39;14.50;86.70
7325;DHT22;3703;48.016;7.802;2023-04-04T10:51:29;14.30;88.00
7325;DHT22;3703;48.016;7.802;2023-04-04T10:54:17;15.50;82.90
7325;DHT22;3703;48.016;7.802;2023-04-04T10:57:05;15.40;83.80
7325;DHT22;3703;48.016;7.802;2023-04-04T11:00:00;15.60;80.40
7325;DHT22;3703;48.016;7.802;2023-04-04T11:02:54;16.10;80.00
7325;DHT22;3703;48.016;7.802;2023-04-04T11:05:42;15.50;75.40
7325;DHT22;3703;48.016;7.802;2023-04-04T11:08:32;16.00;78.10
7325;DHT22;3703;48.016;7.802;2023-04-04T11:11:23;16.00;76.40
7325;DHT22;3703;48.016;7.802;2023-04-04T11:14:13;16.10;80.00
7325;DHT22;3703;48.016;7.802;2023-04-04T11:17:04;16.40;75.80
7325;DHT22;3703;48.016;7.802;2023-04-04T11:19:57;16.10;75.80
7325;DHT22;3703;48.016;7.802;2023-04-04T11:22:45;16.50;76.30
7325;DHT22;3703;48.016;7.802;2023-04-04T11:25:37;16.70;73.90
7325;DHT22;3703;48.016;7.802;2023-04-04T11:28:41;17.10;73.70
7325;DHT22;3703;48.016;7.802;2023-04-04T11:31:33;17.50;71.70
7325;DHT22;3703;48.016;7.802;2023-04-04T11:34:36;17.80;71.60
7325;DHT22;3703;48.016;7.802;2023-04-04T11:37:24;18.60;69.90
7325;DHT22;3703;48.016;7.802;2023-04-04T11:40:12;18.60;69.80
7325;DHT22;3703;48.016;7.802;2023-04-04T11:43:06;18.90;68.20
7325;DHT22;3703;48.016;7.802;2023-04-04T11:46:04;19.20;69.40
7325;DHT22;3703;48.016;7.802;2023-04-04T11:48:56;19.60;68.20
7325;DHT22;3703;48.016;7.802;2023-04-04T11:51:45;20.20;65.40
7325;DHT22;3703;48.016;7.802;2023-04-04T11:54:33;20.40;64.40
7325;DHT22;3703;48.016;7.802;2023-04-04T11:57:21;20.80;63.50
7325;DHT22;3703;48.016;7.802;2023-04-04T12:00:09;21.00;62.80
7325;DHT22;3703;48.016;7.802;2023-04-04T12:03:00;20.90;60.50
7325;DHT22;3703;48.016;7.802;2023-04-04T12:05:48;21.20;61.90
7325;DHT22;3703;48.016;7.802;2023-04-04T12:08:38;21.70;58.90
7325;DHT22;3703;48.016;7.802;2023-04-04T12:11:26;21.60;58.40
7325;DHT22;3703;48.016;7.802;2023-04-04T12:14:17;21.60;58.40
7325;DHT22;3703;48.016;7.802;2023-04-04T12:17:06;21.80;59.10
7325;DHT22;3703;48.016;7.802;2023-04-04T12:19:53;21.70;57.00
7325;DHT22;3703;48.016;7.802;2023-04-04T12:22:41;22.10;56.80
7325;DHT22;3703;48.016;7.802;2023-04-04T12:25:31;21.70;57.10
7325;DHT22;3703;48.016;7.802;2023-04-04T12:28:19;21.60;57.30
7325;DHT22;3703;48.016;7.802;2023-04-04T12:31:08;22.00;58.20
7325;DHT22;3703;48.016;7.802;2023-04-04T12:33:55;21.00;55.10
7325;DHT22;3703;48.016;7.802;2023-04-04T12:36:46;21.40;57.80
7325;DHT22;3703;48.016;7.802;2023-04-04T12:39:34;21.70;56.90
7325;DHT22;3703;48.016;7.802;2023-04-04T12:42:30;21.70;56.40
7325;DHT22;3703;48.016;7.802;2023-04-04T12:45:21;22.00;55.50
7325;DHT22;3703;48.016;7.802;2023-04-04T12:48:10;22.10;54.80
7325;DHT22;3703;48.016;7.802;2023-04-04T12:50:59;21.90;55.60
7325;DHT22;3703;48.016;7.802;2023-04-04T12:53:51;22.50;55.70
7325;DHT22;3703;48.016;7.802;2023-04-04T12:56:39;23.00;56.30
7325;DHT22;3703;48.016;7.802;2023-04-04T12:59:29;23.00;54.50
7325;DHT22;3703;48.016;7.802;2023-04-04T13:02:21;21.50;53.70
7325;DHT22;3703;48.016;7.802;2023-04-04T13:05:09;21.40;52.80
7325;DHT22;3703;48.016;7.802;2023-04-04T13:08:04;21.90;53.00
7325;DHT22;3703;48.016;7.802;2023-04-04T13:10:56;22.50;54.10
7325;DHT22;3703;48.016;7.802;2023-04-04T13:13:45;23.20;54.40
7325;DHT22;3703;48.016;7.802;2023-04-04T13:16:35;23.80;56.00
7325;DHT22;3703;48.016;7.802;2023-04-04T13:19:23;22.80;56.00
7325;DHT22;3703;48.016;7.802;2023-04-04T13:22:10;21.40;56.60
7325;DHT22;3703;48.016;7.802;2023-04-04T13:24:58;21.00;56.60
7325;DHT22;3703;48.016;7.802;2023-04-04T13:27:45;20.30;57.20
7325;DHT22;3703;48.016;7.802;2023-04-04T13:30:33;20.10;58.80
7325;DHT22;3703;48.016;7.802;2023-04-04T13:33:22;20.80;58.50
7325;DHT22;3703;48.016;7.802;2023-04-04T13:36:10;21.20;58.40
7325;DHT22;3703;48.016;7.802;2023-04-04T13:38:59;21.30;56.00
7325;DHT22;3703;48.016;7.802;2023-04-04T13:41:46;20.20;57.40
7325;DHT22;3703;48.016;7.802;2023-04-04T13:44:35;19.70;57.20
7325;DHT22;3703;48.016;7.802;2023-04-04T13:47:23;19.70;59.00
7325;DHT22;3703;48.016;7.802;2023-04-04T13:50:13;19.90;59.90
7325;DHT22;3703;48.016;7.802;2023-04-04T13:53:01;19.00;58.80
7325;DHT22;3703;48.016;7.802;2023-04-04T13:55:49;18.40;59.90
7325;DHT22;3703;48.016;7.802;2023-04-04T13:58:36;18.60;61.40
7325;DHT22;3703;48.016;7.802;2023-04-04T14:01:24;18.30;59.20
7325;DHT22;3703;48.016;7.802;2023-04-04T14:04:12;17.50;60.50
7325;DHT22;3703;48.016;7.802;2023-04-04T14:07:01;17.40;60.80
7325;DHT22;3703;48.016;7.802;2023-04-04T14:09:48;17.10;61.40
7325;DHT22;3703;48.016;7.802;2023-04-04T14:12:36;17.00;60.70
7325;DHT22;3703;48.016;7.802;2023-04-04T14:15:23;16.80;62.20
7325;DHT22;3703;48.016;7.802;2023-04-04T14:18:11;16.40;62.50
7325;DHT22;3703;48.016;7.802;2023-04-04T14:20:59;16.50;63.00
7325;DHT22;3703;48.016;7.802;2023-04-04T14:23:48;16.20;63.20
7325;DHT22;3703;48.016;7.802;2023-04-04T14:26:35;16.10;63.40
7325;DHT22;3703;48.016;7.802;2023-04-04T14:29:23;15.70;63.10
7325;DHT22;3703;48.016;7.802;2023-04-04T14:32:11;15.10;63.80
7325;DHT22;3703;48.016;7.802;2023-04-04T14:34:58;15.10;66.00
7325;DHT22;3703;48.016;7.802;2023-04-04T14:37:46;15.00;64.60
7325;DHT22;3703;48.016;7.802;2023-04-04T14:40:35;14.70;65.00
7325;DHT22;3703;48.016;7.802;2023-04-04T14:43:23;14.50;65.20
7325;DHT22;3703;48.016;7.802;2023-04-04T14:46:11;14.60;64.60
7325;DHT22;3703;48.016;7.802;2023-04-04T14:48:58;14.60;65.30
7325;DHT22;3703;48.016;7.802;2023-04-04T14:51:46;14.70;64.80
7325;DHT22;3703;48.016;7.802;2023-04-04T14:54:33;14.50;65.00
7325;DHT22;3703;48.016;7.802;2023-04-04T14:57:22;14.40;64.50
7325;DHT22;3703;48.016;7.802;2023-04-04T15:00:11;14.30;65.80
7325;DHT22;3703;48.016;7.802;2023-04-04T15:03:00;14.30;66.40
7325;DHT22;3703;48.016;7.802;2023-04-04T15:05:48;14.00;65.70
7325;DHT22;3703;48.016;7.802;2023-04-04T15:08:36;13.60;66.10
7325;DHT22;3703;48.016;7.802;2023-04-04T15:11:25;13.60;68.10
7325;DHT22;3703;48.016;7.802;2023-04-04T15:14:14;13.50;70.90
7325;DHT22;3703;48.016;7.802;2023-04-04T15:17:01;13.90;68.60
7325;DHT22;3703;48.016;7.802;2023-04-04T15:19:49;14.10;68.40
7325;DHT22;3703;48.016;7.802;2023-04-04T15:22:37;14.30;68.20
7325;DHT22;3703;48.016;7.802;2023-04-04T15:25:26;14.10;65.90
7325;DHT22;3703;48.016;7.802;2023-04-04T15:28:14;13.80;66.50
7325;DHT22;3703;48.016;7.802;2023-04-04T15:31:04;13.70;67.50
7325;DHT22;3703;48.016;7.802;2023-04-04T15:33:51;13.70;67.60
7325;DHT22;3703;48.016;7.802;2023-04-04T15:36:40;13.50;67.10
7325;DHT22;3703;48.016;7.802;2023-04-04T15:39:29;13.30;68.00
7325;DHT22;3703;48.016;7.802;2023-04-04T15:42:19;13.20;68.90
7325;DHT22;3703;48.016;7.802;2023-04-04T15:45:07;13.40;67.50
7325;DHT22;3703;48.016;7.802;2023-04-04T15:47:57;13.30;68.20
7325;DHT22;3703;48.016;7.802;2023-04-04T15:50:44;13.40;69.10
7325;DHT22;3703;48.016;7.802;2023-04-04T15:53:32;13.20;69.00
7325;DHT22;3703;48.016;7.802;2023-04-04T15:56:19;13.20;69.20
7325;DHT22;3703;48.016;7.802;2023-04-04T15:59:07;13.10;70.20
7325;DHT22;3703;48.016;7.802;2023-04-04T16:01:54;12.80;68.20
7325;DHT22;3703;48.016;7.802;2023-04-04T16:04:43;12.90;69.10
7325;DHT22;3703;48.016;7.802;2023-04-04T16:07:31;12.90;77.20
7325;DHT22;3703;48.016;7.802;2023-04-04T16:10:18;12.70;70.70
7325;DHT22;3703;48.016;7.802;2023-04-04T16:13:06;12.50;69.30
7325;DHT22;3703;48.016;7.802;2023-04-04T16:15:54;12.50;69.80
7325;DHT22;3703;48.016;7.802;2023-04-04T16:18:41;12.30;69.80
7325;DHT22;3703;48.016;7.802;2023-04-04T16:21:32;12.50;79.30
7325;DHT22;3703;48.016;7.802;2023-04-04T16:24:20;12.30;77.90
7325;DHT22;3703;48.016;7.802;2023-04-04T16:27:07;12.40;71.20
7325;DHT22;3703;48.016;7.802;2023-04-04T16:29:55;12.60;75.00
7325;DHT22;3703;48.016;7.802;2023-04-04T16:32:42;12.90;76.30
7325;DHT22;3703;48.016;7.802;2023-04-04T16:35:31;12.70;72.10
7325;DHT22;3703;48.016;7.802;2023-04-04T16:38:20;12.60;71.50
7325;DHT22;3703;48.016;7.802;2023-04-04T16:41:08;12.40;75.10
7325;DHT22;3703;48.016;7.802;2023-04-04T16:43:55;12.20;75.00
7325;DHT22;3703;48.016;7.802;2023-04-04T16:46:44;12.60;72.70
7325;DHT22;3703;48.016;7.802;2023-04-04T16:49:32;12.30;64.00
7325;DHT22;3703;48.016;7.802;2023-04-04T16:52:19;11.90;70.20
7325;DHT22;3703;48.016;7.802;2023-04-04T16:55:09;11.80;70.40
7325;DHT22;3703;48.016;7.802;2023-04-04T16:57:57;11.80;64.00
7325;DHT22;3703;48.016;7.802;2023-04-04T17:03:34;12.00;65.70
7325;DHT22;3703;48.016;7.802;2023-04-04T17:09:09;11.50;75.20
7325;DHT22;3703;48.016;7.802;2023-04-04T17:11:58;11.80;72.50
7325;DHT22;3703;48.016;7.802;2023-04-04T17:14:53;11.50;72.20
7325;DHT22;3703;48.016;7.802;2023-04-04T17:17:42;11.80;72.70
7325;DHT22;3703;48.016;7.802;2023-04-04T17:42:07;11.30;75.60
7325;DHT22;3703;48.016;7.802;2023-04-04T17:47:47;11.80;64.10
7325;DHT22;3703;48.016;7.802;2023-04-04T17:56:12;11.00;75.90
7325;DHT22;3703;48.016;7.802;2023-04-04T17:59:01;11.20;76.20
7325;DHT22;3703;48.016;7.802;2023-04-04T18:01:52;11.00;65.10
7325;DHT22;3703;48.016;7.802;2023-04-04T18:45:10;10.20;70.70
7325;DHT22;3703;48.016;7.802;2023-04-04T19:13:42;11.10;78.40
7325;DHT22;3703;48.016;7.802;2023-04-04T19:32:11;8.90;77.80
7325;DHT22;3703;48.016;7.802;2023-04-04T19:41:45;8.90;77.50
7325;DHT22;3703;48.016;7.802;2023-04-04T19:50:40;8.80;75.70
7325;DHT22;3703;48.016;7.802;2023-04-04T19:59:55;8.70;87.00
7325;DHT22;3703;48.016;7.802;2023-04-04T20:02:57;8.60;77.00
7325;DHT22;3703;48.016;7.802;2023-04-04T20:06:41;8.70;76.30
7325;DHT22;3703;48.016;7.802;2023-04-04T20:25:09;8.70;77.80
7325;DHT22;3703;48.016;7.802;2023-04-04T20:28:27;8.70;78.10
7325;DHT22;3703;48.016;7.802;2023-04-04T20:34:36;8.30;78.90
7325;DHT22;3703;48.016;7.802;2023-04-04T20:41:20;8.30;78.90
7325;DHT22;3703;48.016;7.802;2023-04-04T21:06:29;8.00;80.70
7325;DHT22;3703;48.016;7.802;2023-04-04T21:09:17;8.10;81.80
7325;DHT22;3703;48.016;7.802;2023-04-04T21:12:05;7.90;84.40
7325;DHT22;3703;48.016;7.802;2023-04-04T21:14:53;7.40;82.90
7325;DHT22;3703;48.016;7.802;2023-04-04T21:17:41;7.40;82.70
7325;DHT22;3703;48.016;7.802;2023-04-04T21:21:00;7.00;84.10
7325;DHT22;3703;48.016;7.802;2023-04-04T21:24:06;7.40;83.70
7325;DHT22;3703;48.016;7.802;2023-04-04T21:32:31;7.50;86.10
7325;DHT22;3703;48.016;7.802;2023-04-04T21:35:43;7.30;85.90
7325;DHT22;3703;48.016;7.802;2023-04-04T21:38:33;7.30;86.00
7325;DHT22;3703;48.016;7.802;2023-04-04T21:41:24;6.10;83.70
7325;DHT22;3703;48.016;7.802;2023-04-04T21:44:13;7.30;86.10
7325;DHT22;3703;48.016;7.802;2023-04-04T21:58:16;7.10;85.10
7325;DHT22;3703;48.016;7.802;2023-04-04T22:01:03;7.20;86.40
7325;DHT22;3703;48.016;7.802;2023-04-04T22:03:51;7.70;88.10
7325;DHT22;3703;48.016;7.802;2023-04-04T22:15:07;7.00;86.20
7325;DHT22;3703;48.016;7.802;2023-04-04T22:17:56;7.00;87.20
7325;DHT22;3703;48.016;7.802;2023-04-04T22:23:40;6.90;88.90
7325;DHT22;3703;48.016;7.802;2023-04-04T22:32:07;6.50;90.70
7325;DHT22;3703;48.016;7.802;2023-04-04T22:40:31;6.20;92.00
7325;DHT22;3703;48.016;7.802;2023-04-04T22:48:57;6.10;92.60
7325;DHT22;3703;48.016;7.802;2023-04-04T22:54:40;5.80;93.30
7325;DHT22;3703;48.016;7.802;2023-04-04T23:00:16;5.70;99.90
7325;DHT22;3703;48.016;7.802;2023-04-04T23:05:54;5.80;99.90
7325;DHT22;3703;48.016;7.802;2023-04-04T23:22:44;5.60;99.90
7325;DHT22;3703;48.016;7.802;2023-04-04T23:39:33;5.70;1.00
7325;DHT22;3703;48.016;7.802;2023-04-04T23:45:10;5.50;1.00
7325;DHT22;3703;48.016;7.802;2023-04-04T23:56:25;5.70;1.00
